Time;durP1;ratioP1;P1;durP2;ratioP2;P2;SDS_P1;SDS_P2;PMS_P1;PMS_P2;Temp;Humidity;BMP_temperature;BMP_pressure;BME280_temperature;BME280_humidity;BME280_pressure;Samples;Min_cycle;Max_cycle;Signal;HPM_P1;HPM_P2
2022/04/04 00:00:11;;;;;;;12.13;10.93;;;;;;;0.92;75.37;95901.78;6366571;22;20006;-59
2022/04/04 00:02:36;;;;;;;12.90;11.70;;;;;;;1.00;74.55;95909.19;6366981;22;20013;-59
2022/04/04 00:05:03;;;;;;;12.55;11.45;;;;;;;0.94;75.20;95905.13;6367042;22;20073;-58
2022/04/04 00:07:28;;;;;;;12.90;11.80;;;;;;;0.94;75.22;95904.28;6367010;22;20047;-58
2022/04/04 00:09:54;;;;;;;12.75;11.55;;;;;;;0.92;74.59;95906.97;6366869;22;20006;-58
2022/04/04 00:12:20;;;;;;;12.93;11.63;;;;;;;0.90;75.63;95914.00;6367069;22;20032;-56
2022/04/04 00:14:47;;;;;;;13.00;11.77;;;;;;;0.88;75.20;95910.59;6366781;22;20010;-58
2022/04/04 00:17:12;;;;;;;13.90;12.48;;;;;;;1.04;74.93;95909.84;6366962;22;20013;-58
2022/04/04 00:19:39;;;;;;;12.82;11.52;;;;;;;0.97;75.48;95909.31;6366889;22;20006;-57
2022/04/04 00:22:05;;;;;;;13.98;12.52;;;;;;;0.97;74.65;95906.72;6367342;22;20003;-58
2022/04/04 00:24:30;;;;;;;12.93;11.60;;;;;;;1.16;74.49;95913.56;6366237;22;20430;-58
2022/04/04 00:26:56;;;;;;;14.02;12.60;;;;;;;1.03;75.25;95909.03;6366943;22;19998;-58
2022/04/04 00:29:21;;;;;;;13.75;12.38;;;;;;;0.92;76.22;95912.16;6366952;22;20082;-58
2022/04/04 00:31:46;;;;;;;13.43;12.02;;;;;;;0.87;75.05;95908.94;6367291;22;20007;-58
2022/04/04 00:34:12;;;;;;;13.35;12.07;;;;;;;0.86;75.09;95909.84;6368989;22;20334;-58
2022/04/04 00:36:39;;;;;;;14.45;13.13;;;;;;;0.88;75.52;95905.41;6368992;22;20067;-59
2022/04/04 00:39:04;;;;;;;12.93;11.57;;;;;;;0.88;75.35;95909.78;6369453;22;20016;-59
2022/04/04 00:41:30;;;;;;;14.18;12.80;;;;;;;0.98;74.54;95906.66;6340904;22;20346;-59
2022/04/04 00:43:56;;;;;;;13.68;12.48;;;;;;;0.97;74.65;95909.31;6369287;22;19998;-58
2022/04/04 00:46:21;;;;;;;13.45;12.27;;;;;;;0.88;74.67;95904.59;6369064;22;20002;-59
2022/04/04 00:48:47;;;;;;;12.82;11.32;;;;;;;0.86;74.62;95899.47;6368761;22;20473;-59
2022/04/04 00:51:13;;;;;;;13.10;11.82;;;;;;;0.85;75.14;95896.06;6368694;22;20768;-58
2022/04/04 00:53:39;;;;;;;12.85;11.63;;;;;;;0.80;74.53;95898.06;6368664;22;20010;-58
2022/04/04 00:56:06;;;;;;;13.70;12.40;;;;;;;0.86;75.25;95902.06;6368490;22;20002;-59
2022/04/04 00:58:35;;;;;;;13.90;12.52;;;;;;;0.87;75.93;95902.94;6368785;22;20452;-58
2022/04/04 01:01:00;;;;;;;14.13;12.80;;;;;;;0.89;75.39;95901.09;6369244;22;20029;-58
2022/04/04 01:03:26;;;;;;;13.10;11.90;;;;;;;0.79;75.52;95901.56;6367974;22;20490;-59
2022/04/04 01:05:51;;;;;;;13.35;12.15;;;;;;;0.77;75.53;95897.38;6368365;22;20077;-59
2022/04/04 01:08:16;;;;;;;13.40;12.18;;;;;;;0.74;75.65;95898.34;6368972;22;20043;-59
2022/04/04 01:10:43;;;;;;;14.00;12.20;;;;;;;0.75;76.17;95896.59;6368674;22;20383;-59
2022/04/04 01:13:10;;;;;;;14.05;12.63;;;;;;;0.90;75.36;95902.75;6368737;22;20002;-58
2022/04/04 01:15:36;;;;;;;14.85;13.52;;;;;;;0.77;75.57;95905.13;6368622;22;20013;-59
2022/04/04 01:18:03;;;;;;;13.02;11.85;;;;;;;0.74;75.37;95905.28;6368845;22;20002;-59
2022/04/04 01:20:29;;;;;;;11.85;10.75;;;;;;;0.76;74.94;95898.28;6368234;22;20002;-58
2022/04/04 01:22:54;;;;;;;13.88;12.63;;;;;;;0.79;74.97;95901.56;6368643;22;20447;-59
2022/04/04 01:25:28;;;;;;;12.90;11.80;;;;;;;0.74;75.60;95902.69;6368799;22;20077;-59
2022/04/04 01:27:55;;;;;;;13.20;11.13;;;;;;;0.74;75.39;95903.53;6368612;22;20069;-58
2022/04/04 01:30:22;;;;;;;11.57;10.55;;;;;;;0.77;75.79;95903.38;6368283;22;20011;-59
2022/04/04 01:32:49;;;;;;;13.90;12.60;;;;;;;0.74;75.03;95906.13;6367918;22;19998;-57
2022/04/04 01:35:15;;;;;;;13.27;11.88;;;;;;;0.77;75.37;95905.97;6368731;22;20009;-58
2022/04/04 01:37:41;;;;;;;13.00;11.73;;;;;;;0.72;75.56;95905.34;6368432;22;20059;-59
2022/04/04 01:40:07;;;;;;;13.45;12.15;;;;;;;0.72;75.82;95907.94;6368721;22;20069;-59
2022/04/04 01:42:33;;;;;;;12.18;10.98;;;;;;;0.78;76.06;95910.25;6368223;22;20002;-59
2022/04/04 01:44:58;;;;;;;13.55;12.32;;;;;;;0.75;75.24;95907.78;6368748;22;20073;-59
2022/04/04 01:47:24;;;;;;;12.88;11.65;;;;;;;0.74;74.93;95902.69;6368301;22;20030;-59
2022/04/04 01:49:49;;;;;;;12.77;11.57;;;;;;;0.73;75.49;95901.84;6367582;22;20079;-58
2022/04/04 01:52:14;;;;;;;13.68;12.32;;;;;;;0.79;74.10;95906.75;6368333;22;20008;-60
2022/04/04 01:54:40;;;;;;;13.05;11.85;;;;;;;0.78;74.80;95902.47;6367869;22;20018;-59
2022/04/04 01:57:06;;;;;;;12.77;11.68;;;;;;;0.78;75.11;95905.06;6368695;22;20013;-59
2022/04/04 01:59:31;;;;;;;13.27;11.98;;;;;;;0.74;74.42;95908.72;6367538;22;20002;-59
2022/04/04 02:01:57;;;;;;;12.45;11.20;;;;;;;0.69;75.26;95908.97;6368322;22;20006;-58
2022/04/04 02:04:22;;;;;;;13.20;12.00;;;;;;;0.69;74.56;95905.50;6368082;22;19999;-60
2022/04/04 02:06:47;;;;;;;13.45;12.15;;;;;;;0.65;74.63;95910.00;6368047;22;20423;-58
2022/04/04 02:09:13;;;;;;;12.70;11.40;;;;;;;0.65;74.94;95914.38;6368297;22;19998;-59
2022/04/04 02:11:38;;;;;;;13.10;11.88;;;;;;;0.62;75.58;95911.94;6367789;22;20006;-60
2022/04/04 02:14:04;;;;;;;11.98;10.88;;;;;;;0.63;74.80;95917.00;6368138;22;20066;-59
2022/04/04 02:16:29;;;;;;;13.15;11.90;;;;;;;0.60;75.27;95916.34;6368040;22;20427;-59
2022/04/04 02:18:55;;;;;;;12.57;11.43;;;;;;;0.61;75.41;95907.66;6368302;22;20346;-60
2022/04/04 02:21:20;;;;;;;12.90;11.63;;;;;;;0.57;75.16;95906.97;6367823;22;19998;-60
2022/04/04 02:23:46;;;;;;;12.48;11.38;;;;;;;0.60;75.38;95911.16;6368147;22;20078;-59
2022/04/04 02:26:11;;;;;;;12.20;11.00;;;;;;;0.57;75.05;95909.56;6367941;22;20332;-59
2022/04/04 02:28:37;;;;;;;12.18;11.07;;;;;;;0.59;75.17;95912.06;6367864;22;20022;-59
2022/04/04 02:31:03;;;;;;;13.35;12.15;;;;;;;0.57;75.20;95913.00;6367886;22;20010;-59
2022/04/04 02:33:29;;;;;;;12.95;11.65;;;;;;;0.53;74.34;95903.66;6367704;22;20343;-59
2022/04/04 02:35:56;;;;;;;13.32;12.02;;;;;;;0.54;75.66;95902.75;6368094;22;20442;-60
2022/04/04 02:38:23;;;;;;;13.27;12.10;;;;;;;0.55;75.10;95909.66;6367867;22;20005;-60
2022/04/04 02:40:50;;;;;;;12.70;11.35;;;;;;;0.59;75.32;95894.75;6368088;22;20005;-59
2022/04/04 02:43:15;;;;;;;11.82;10.73;;;;;;;0.55;75.08;95899.28;6367859;22;20438;-57
2022/04/04 02:45:40;;;;;;;11.95;10.85;;;;;;;0.56;75.81;95893.19;6367265;22;20010;-59
2022/04/04 02:48:07;;;;;;;12.45;11.25;;;;;;;0.59;77.09;95905.13;6367776;22;20494;-59
2022/04/04 02:50:34;;;;;;;13.10;11.73;;;;;;;0.56;77.15;95903.53;6367990;22;20390;-59
2022/04/04 02:52:59;;;;;;;12.15;10.95;;;;;;;0.54;77.29;95897.56;6368028;22;20017;-60
2022/04/04 02:58:09;;;;;;;13.43;12.10;;;;;;;0.48;80.21;95904.84;6368033;22;20060;-58
2022/04/04 03:00:34;;;;;;;14.60;11.90;;;;;;;0.48;79.57;95908.25;6367530;22;20349;-59
2022/04/04 03:03:00;;;;;;;12.70;11.50;;;;;;;0.46;80.14;95906.66;6367785;22;20006;-58
2022/04/04 03:05:26;;;;;;;13.18;11.88;;;;;;;0.47;81.02;95903.16;6367560;22;20334;-60
2022/04/04 03:07:52;;;;;;;11.88;10.82;;;;;;;0.45;81.18;95898.03;6367823;22;20022;-60
2022/04/04 03:10:17;;;;;;;13.25;12.02;;;;;;;0.43;81.73;95903.28;6367327;22;20059;-60
2022/04/04 03:12:45;;;;;;;15.95;13.00;;;;;;;0.37;82.93;95905.34;6367282;22;19998;-59
2022/04/04 03:15:13;;;;;;;14.05;12.68;;;;;;;0.39;82.29;95900.94;6367496;22;20014;-59
2022/04/04 03:17:39;;;;;;;13.40;11.93;;;;;;;0.38;83.33;95901.84;6367302;22;20010;-59
2022/04/04 03:20:09;;;;;;;13.48;12.27;;;;;;;0.38;83.94;95904.44;6367431;22;20009;-59
2022/04/04 03:22:38;;;;;;;11.93;10.88;;;;;;;0.35;84.83;95902.81;6367031;22;20051;-59
2022/04/04 03:25:05;;;;;;;12.50;11.32;;;;;;;0.40;82.95;95902.59;6367515;22;20073;-59
2022/04/04 03:27:31;;;;;;;13.48;12.10;;;;;;;0.39;84.14;95900.94;6367577;22;20081;-59
2022/04/04 03:29:57;;;;;;;14.00;12.60;;;;;;;0.38;83.35;95902.66;6367436;22;20030;-60
2022/04/04 03:32:23;;;;;;;12.98;11.77;;;;;;;0.41;82.64;95899.94;6367508;22;20384;-60
2022/04/04 03:34:48;;;;;;;13.02;11.73;;;;;;;0.43;82.06;95902.47;6366862;22;20006;-56
2022/04/04 03:37:14;;;;;;;15.35;13.23;;;;;;;0.45;81.90;95894.63;6367580;22;20026;-60
2022/04/04 03:39:39;;;;;;;13.00;11.68;;;;;;;0.43;83.75;95905.03;6367218;22;20018;-57
2022/04/04 03:42:05;;;;;;;13.20;11.90;;;;;;;0.41;83.99;95906.88;6367207;22;20511;-58
2022/04/04 03:44:30;;;;;;;12.10;10.90;;;;;;;0.38;83.86;95900.06;6367352;22;20082;-58
2022/04/04 03:46:55;;;;;;;11.52;10.52;;;;;;;0.35;85.22;95902.81;6367318;22;20005;-58
2022/04/04 03:49:21;;;;;;;13.27;11.93;;;;;;;0.35;84.90;95912.38;6366875;22;20044;-58
2022/04/04 03:51:46;;;;;;;12.65;11.48;;;;;;;0.39;83.87;95913.88;6367086;22;20013;-59
2022/04/04 03:54:12;;;;;;;12.25;11.05;;;;;;;0.35;84.62;95909.78;6367287;22;20006;-57
2022/04/04 03:56:39;;;;;;;19.67;15.80;;;;;;;0.34;83.46;95905.50;6367004;22;20376;-57
2022/04/04 03:59:04;;;;;;;16.60;14.82;;;;;;;0.34;82.69;95910.69;6367315;22;20461;-58
2022/04/04 04:01:30;;;;;;;16.55;14.88;;;;;;;0.48;82.28;95910.84;6366037;22;20010;-58
2022/04/04 04:03:56;;;;;;;15.13;13.60;;;;;;;0.47;81.52;95910.94;6367071;22;20005;-58
2022/04/04 04:06:22;;;;;;;15.20;13.65;;;;;;;0.43;81.85;95905.88;6367352;22;20013;-59
2022/04/04 04:08:48;;;;;;;16.98;15.13;;;;;;;0.47;80.51;95914.34;6367302;22;20022;-59
2022/04/04 04:11:16;;;;;;;15.85;14.35;;;;;;;0.44;82.00;95914.50;6367127;22;19998;-59
2022/04/04 04:13:43;;;;;;;14.82;13.23;;;;;;;0.45;81.67;95918.75;6367183;22;20039;-59
2022/04/04 04:16:09;;;;;;;14.25;12.85;;;;;;;0.46;81.17;95917.03;6367333;22;20005;-59
2022/04/04 04:18:38;;;;;;;15.30;13.88;;;;;;;0.43;80.92;95920.59;6366903;22;20345;-58
2022/04/04 04:21:04;;;;;;;14.40;12.88;;;;;;;0.45;80.24;95923.13;6366450;22;20003;-58
2022/04/04 04:23:29;;;;;;;12.73;11.52;;;;;;;0.45;79.88;95918.75;6366791;22;20002;-58
2022/04/04 04:25:55;;;;;;;13.98;12.57;;;;;;;0.47;80.12;95921.28;6366446;22;20006;-59
2022/04/04 04:28:21;;;;;;;14.25;12.93;;;;;;;0.49;79.31;95925.47;6367101;22;19998;-58
2022/04/04 04:30:46;;;;;;;13.65;12.27;;;;;;;0.44;79.59;95919.69;6338977;22;20018;-58
2022/04/04 04:33:12;;;;;;;14.43;13.02;;;;;;;0.40;79.96;95912.97;6366949;22;20003;-58
2022/04/04 04:35:38;;;;;;;14.15;12.63;;;;;;;0.38;79.59;95925.16;6366997;22;20006;-59
2022/04/04 04:38:04;;;;;;;14.68;13.18;;;;;;;0.36;80.27;95919.22;6367111;22;20003;-58
2022/04/04 04:40:29;;;;;;;16.17;14.07;;;;;;;0.35;80.51;95913.19;6366793;22;20342;-58
2022/04/04 04:42:56;;;;;;;14.52;13.13;;;;;;;0.34;80.37;95918.44;6367151;22;20006;-59
2022/04/04 04:45:21;;;;;;;14.40;12.77;;;;;;;0.38;80.13;95927.75;6366882;22;20005;-58
2022/04/04 04:47:48;;;;;;;14.95;13.35;;;;;;;0.43;80.16;95936.13;6366826;22;20006;-57
2022/04/04 04:50:16;;;;;;;15.30;13.65;;;;;;;0.41;80.14;95927.59;6366436;22;20019;-58
2022/04/04 04:52:42;;;;;;;13.70;12.40;;;;;;;0.43;79.73;95928.34;6366585;22;20029;-59
2022/04/04 04:55:09;;;;;;;13.55;12.15;;;;;;;0.53;79.26;95928.75;6366783;22;20007;-58
2022/04/04 04:57:35;;;;;;;14.20;12.80;;;;;;;0.45;79.18;95928.31;6367323;22;20335;-58
2022/04/04 05:00:03;;;;;;;20.48;17.88;;;;;;;0.39;79.95;95926.84;6366951;22;20013;-59
2022/04/04 05:02:29;;;;;;;17.73;15.63;;;;;;;0.39;79.99;95926.84;6366564;22;20002;-58
2022/04/04 05:04:54;;;;;;;16.92;15.25;;;;;;;0.36;80.40;95932.16;6366812;22;20036;-57
2022/04/04 05:07:20;;;;;;;18.35;16.55;;;;;;;0.33;80.27;95934.88;6366951;22;20034;-58
2022/04/04 05:09:46;;;;;;;19.52;17.35;;;;;;;0.35;79.74;95936.50;6366800;22;20112;-59
2022/04/04 05:12:11;;;;;;;25.00;18.05;;;;;;;0.38;79.59;95930.34;6338841;22;20454;-59
2022/04/04 05:14:38;;;;;;;19.55;17.55;;;;;;;0.34;79.89;95926.22;6338558;22;20024;-59
2022/04/04 05:17:05;;;;;;;17.08;15.35;;;;;;;0.32;79.79;95923.69;6366928;22;20033;-58
2022/04/04 05:19:31;;;;;;;32.30;26.63;;;;;;;0.32;79.60;95928.88;6368181;22;20600;-57
2022/04/04 05:21:56;;;;;;;19.45;17.08;;;;;;;0.34;79.29;95934.00;6367842;22;20060;-57
2022/04/04 05:24:22;;;;;;;16.83;15.02;;;;;;;0.31;80.62;95923.75;6368777;22;20098;-58
2022/04/04 05:26:47;;;;;;;18.85;14.90;;;;;;;0.31;79.48;95928.94;6368644;22;20053;-58
2022/04/04 05:29:15;;;;;;;16.38;14.65;;;;;;;0.34;79.54;95929.63;6368811;22;20003;-58
2022/04/04 05:31:41;;;;;;;14.68;13.18;;;;;;;0.31;80.58;95929.78;6366992;22;20009;-58
2022/04/04 05:34:07;;;;;;;13.85;12.45;;;;;;;0.31;80.67;95922.03;6367417;22;20562;-57
2022/04/04 05:36:36;;;;;;;13.73;12.40;;;;;;;0.33;81.21;95922.78;6368623;22;20071;-58
2022/04/04 05:39:02;;;;;;;14.07;12.70;;;;;;;0.38;80.64;95930.34;6367261;22;20010;-59
2022/04/04 05:41:28;;;;;;;14.35;12.98;;;;;;;0.40;80.86;95929.34;6363099;22;20325;-60
2022/04/04 05:43:53;;;;;;;15.10;13.30;;;;;;;0.41;80.50;95927.59;6364275;22;20078;-59
2022/04/04 05:46:19;;;;;;;13.18;11.93;;;;;;;0.43;80.39;95923.19;6365078;22;20006;-59
2022/04/04 05:48:45;;;;;;;17.85;15.93;;;;;;;0.46;80.72;95928.22;6365676;22;20532;-59
2022/04/04 05:51:13;;;;;;;18.25;16.20;;;;;;;0.48;80.87;95920.38;6366295;22;20006;-57
2022/04/04 05:53:39;;;;;;;39.88;29.23;;;;;;;0.48;81.03;95931.56;6365584;22;20006;-60
2022/04/04 05:56:05;;;;;;;21.45;18.65;;;;;;;0.46;81.04;95928.22;6367779;22;19998;-60
2022/04/04 05:58:30;;;;;;;17.48;15.77;;;;;;;0.47;81.06;95926.47;6368306;22;20002;-59
2022/04/04 06:00:56;;;;;;;15.60;14.10;;;;;;;0.51;80.38;95922.81;6366065;22;20124;-60
2022/04/04 06:03:22;;;;;;;15.35;13.85;;;;;;;0.54;80.31;95936.44;6365944;22;19998;-60
2022/04/04 06:05:49;;;;;;;16.13;14.52;;;;;;;0.61;80.13;95939.56;6367167;22;20013;-59
2022/04/04 06:08:19;;;;;;;14.98;13.63;;;;;;;0.63;79.33;95942.94;6367258;22;20078;-59
2022/04/04 06:10:45;;;;;;;15.25;13.65;;;;;;;0.64;79.28;95943.78;6366834;22;20002;-60
2022/04/04 06:13:15;;;;;;;14.80;13.48;;;;;;;0.68;79.30;95940.97;6367358;22;20006;-59
2022/04/04 06:15:42;;;;;;;28.88;25.92;;;;;;;0.74;80.18;95946.75;6367715;22;20335;-60
2022/04/04 06:18:08;;;;;;;16.42;14.90;;;;;;;0.76;80.14;95943.16;6338783;22;20059;-59
2022/04/04 06:20:34;;;;;;;19.42;15.32;;;;;;;0.78;79.83;95951.72;6367233;22;20003;-60
2022/04/04 06:23:00;;;;;;;26.55;19.77;;;;;;;0.89;80.23;95947.75;6367304;22;20324;-60
2022/04/04 06:25:26;;;;;;;22.40;18.27;;;;;;;0.91;79.65;95958.88;6367817;22;20701;-59
2022/04/04 06:27:52;;;;;;;17.05;14.52;;;;;;;0.86;79.61;95961.69;6367919;22;20009;-59
2022/04/04 06:30:17;;;;;;;21.48;16.10;;;;;;;0.92;79.04;95968.34;6367357;22;20342;-59
2022/04/04 06:32:44;;;;;;;23.17;18.50;;;;;;;1.07;79.02;95957.22;6367475;22;20005;-60
2022/04/04 06:35:14;;;;;;;18.98;16.95;;;;;;;1.13;77.37;95963.84;6368254;22;19998;-60
2022/04/04 06:37:40;;;;;;;20.13;16.75;;;;;;;1.22;76.83;95967.75;6366981;22;20003;-58
2022/04/04 06:40:07;;;;;;;20.20;18.02;;;;;;;1.21;76.63;95973.81;6339169;22;20056;-60
2022/04/04 06:42:37;;;;;;;18.67;16.80;;;;;;;1.22;77.23;95968.56;6367299;22;20120;-59
2022/04/04 06:45:04;;;;;;;20.98;18.60;;;;;;;1.24;77.05;95981.47;6366982;22;20009;-59
2022/04/04 06:47:30;;;;;;;19.25;15.63;;;;;;;1.27;75.38;95989.91;6366952;22;19999;-59
2022/04/04 06:49:56;;;;;;;17.90;16.30;;;;;;;1.24;76.18;95984.88;6367630;22;20014;-59
2022/04/04 06:52:21;;;;;;;20.67;18.48;;;;;;;1.29;76.36;95992.44;6367871;22;20009;-59
2022/04/04 06:54:47;;;;;;;21.05;17.52;;;;;;;1.28;76.66;95985.59;6367549;22;20483;-60
2022/04/04 06:57:13;;;;;;;27.17;21.73;;;;;;;1.41;75.67;95991.81;6339434;22;20014;-59
2022/04/04 06:59:38;;;;;;;35.92;24.00;;;;;;;1.43;76.31;95992.56;6367748;22;19998;-59
2022/04/04 07:02:04;;;;;;;36.47;25.27;;;;;;;1.41;76.02;95996.16;6367679;22;20006;-59
2022/04/04 07:04:29;;;;;;;37.20;23.13;;;;;;;1.40;76.33;96002.28;6367787;22;20001;-60
2022/04/04 07:06:55;;;;;;;32.83;22.42;;;;;;;1.33;76.89;96000.91;6367715;22;20010;-59
2022/04/04 07:09:20;;;;;;;26.73;20.23;;;;;;;1.44;75.39;96003.78;6367708;22;20005;-59
2022/04/04 07:11:47;;;;;;;28.75;21.60;;;;;;;1.47;75.59;96005.41;6367520;22;19998;-59
2022/04/04 07:14:13;;;;;;;21.85;18.40;;;;;;;1.61;75.32;96005.53;6367486;22;20025;-59
2022/04/04 07:16:39;;;;;;;21.95;18.50;;;;;;;1.52;76.22;96008.59;6366924;22;20009;-59
2022/04/04 07:19:05;;;;;;;27.45;19.25;;;;;;;1.61;75.39;96004.69;6367444;22;20051;-59
2022/04/04 07:21:30;;;;;;;26.42;20.58;;;;;;;1.61;75.03;96008.13;6367625;22;20010;-59
2022/04/04 07:23:56;;;;;;;19.98;17.95;;;;;;;1.52;75.54;96018.97;6367561;22;20430;-59
2022/04/04 07:26:23;;;;;;;27.88;19.88;;;;;;;1.54;75.68;96011.94;6367576;22;20006;-59
2022/04/04 07:28:49;;;;;;;22.83;17.77;;;;;;;1.64;75.41;96020.94;6367297;22;20002;-59
2022/04/04 07:31:15;;;;;;;34.42;23.85;;;;;;;1.76;74.38;96014.25;6367493;22;20101;-59
2022/04/04 07:33:41;;;;;;;20.88;18.17;;;;;;;1.76;74.68;96016.03;6367216;22;20499;-59
2022/04/04 07:36:06;;;;;;;21.42;16.60;;;;;;;1.87;74.64;96018.91;6367681;22;19998;-59
2022/04/04 07:38:33;;;;;;;17.90;13.13;;;;;;;1.92;73.48;96016.91;6367025;22;19998;-59
2022/04/04 07:40:58;;;;;;;16.42;14.40;;;;;;;1.92;73.91;96022.13;6367236;22;20007;-59
2022/04/04 07:43:23;;;;;;;16.15;14.65;;;;;;;1.85;74.18;96019.00;6367265;22;20069;-59
2022/04/04 07:45:49;;;;;;;15.10;13.60;;;;;;;1.82;74.34;96015.72;6367079;22;20342;-59
2022/04/04 07:48:14;;;;;;;14.55;13.18;;;;;;;2.00;74.32;96019.94;6367044;22;20005;-60
2022/04/04 07:50:41;;;;;;;14.38;13.07;;;;;;;2.05;73.07;96022.31;6339291;22;20005;-60
2022/04/04 07:53:07;;;;;;;13.55;12.38;;;;;;;2.00;71.91;96014.75;6367440;22;20010;-59
2022/04/04 07:55:33;;;;;;;12.20;11.05;;;;;;;1.95;72.87;96021.94;6339481;22;20013;-60
2022/04/04 07:57:59;;;;;;;12.52;11.25;;;;;;;2.13;71.47;96017.53;6367178;22;19998;-59
2022/04/04 08:00:24;;;;;;;13.73;12.43;;;;;;;2.10;71.04;96019.44;6367099;22;20385;-60
2022/04/04 08:02:50;;;;;;;11.10;9.98;;;;;;;2.05;71.09;96022.31;6366945;22;20006;-59
2022/04/04 08:05:16;;;;;;;11.32;10.27;;;;;;;2.07;69.77;96014.41;6367209;22;20010;-59
2022/04/04 08:07:44;;;;;;;11.55;10.45;;;;;;;2.17;71.93;96026.00;6366976;22;20032;-59
2022/04/04 08:10:10;;;;;;;11.18;10.18;;;;;;;2.18;69.15;96016.44;6366972;22;20343;-59
2022/04/04 08:12:36;;;;;;;11.75;10.57;;;;;;;2.37;70.40;96024.91;6367064;22;20002;-59
2022/04/04 08:15:02;;;;;;;12.05;10.95;;;;;;;2.33;68.77;96018.22;6367129;22;20017;-60
2022/04/04 08:17:28;;;;;;;12.68;11.57;;;;;;;2.31;70.01;96029.59;6367059;22;20400;-60
2022/04/04 08:19:53;;;;;;;12.90;11.40;;;;;;;2.31;67.47;96032.19;6366922;22;20430;-60
2022/04/04 08:22:19;;;;;;;13.23;11.95;;;;;;;2.38;68.38;96025.78;6367175;22;20009;-59
2022/04/04 08:24:44;;;;;;;11.13;10.13;;;;;;;2.45;66.05;96021.09;6366881;22;20013;-59
2022/04/04 08:27:10;;;;;;;11.25;10.25;;;;;;;2.32;67.50;96023.47;6367289;22;20353;-59
2022/04/04 08:29:37;;;;;;;11.98;10.88;;;;;;;2.50;69.02;96022.50;6367070;22;20007;-59
2022/04/04 08:32:03;;;;;;;11.32;10.32;;;;;;;2.71;69.16;96023.06;6367121;22;20010;-59
2022/04/04 08:34:29;;;;;;;11.82;10.73;;;;;;;2.79;68.02;96032.19;6366975;22;20006;-60
2022/04/04 08:36:55;;;;;;;10.95;9.98;;;;;;;2.85;67.15;96027.50;6339014;22;20003;-59
2022/04/04 08:39:20;;;;;;;11.30;10.20;;;;;;;2.74;65.21;96021.22;6366991;22;20020;-59
2022/04/04 08:41:45;;;;;;;12.23;11.13;;;;;;;2.64;67.75;96023.50;6367327;22;20461;-59
2022/04/04 08:44:14;;;;;;;11.43;10.38;;;;;;;2.70;66.53;96017.94;6366857;22;20034;-60
2022/04/04 08:46:41;;;;;;;10.70;9.80;;;;;;;2.89;66.54;96019.53;6366889;22;19998;-59
2022/04/04 08:49:08;;;;;;;10.65;9.65;;;;;;;3.25;66.91;96028.78;6366769;22;20018;-60
2022/04/04 08:51:34;;;;;;;12.40;10.20;;;;;;;3.14;65.90;96027.59;6366804;22;19998;-60
2022/04/04 08:54:00;;;;;;;11.27;10.27;;;;;;;3.05;66.25;96027.28;6368172;22;20350;-60
2022/04/04 08:56:27;;;;;;;12.15;11.05;;;;;;;3.01;67.51;96026.66;6369279;22;20022;-60
2022/04/04 08:58:54;;;;;;;11.38;10.30;;;;;;;3.10;66.18;96026.13;6368855;22;20007;-59
2022/04/04 09:01:22;;;;;;;12.82;11.63;;;;;;;3.18;66.68;96030.03;6368850;22;20009;-60
2022/04/04 09:03:53;;;;;;;11.90;10.75;;;;;;;3.35;67.08;96023.88;6368771;22;20450;-60
2022/04/04 09:06:19;;;;;;;12.60;11.38;;;;;;;3.30;66.26;96021.53;6368833;22;20013;-60
2022/04/04 09:08:47;;;;;;;12.20;11.05;;;;;;;3.23;65.39;96036.66;6368810;22;20342;-59
2022/04/04 09:11:14;;;;;;;11.95;10.68;;;;;;;3.29;65.09;96027.66;6369190;22;20049;-59
2022/04/04 09:13:40;;;;;;;11.48;10.38;;;;;;;3.78;63.51;96041.31;6368671;22;20002;-60
2022/04/04 09:16:08;;;;;;;11.95;10.85;;;;;;;3.78;63.51;96029.16;6368909;22;20008;-59
2022/04/04 09:18:36;;;;;;;11.52;10.48;;;;;;;3.63;63.41;96028.28;6368706;22;19998;-60
2022/04/04 09:21:03;;;;;;;12.93;11.63;;;;;;;3.51;64.60;96035.03;6368653;22;20034;-60
2022/04/04 09:23:49;;;;;;;10.88;9.88;;;;;;;3.63;64.38;96036.09;6368450;22;20010;-60
2022/04/04 09:26:34;;;;;;;13.13;11.35;;;;;;;3.66;62.50;96035.94;6367705;22;20006;-60
2022/04/04 09:29:21;;;;;;;10.55;9.65;;;;;;;3.57;61.64;96031.25;6368949;22;20010;-59
2022/04/04 09:32:05;;;;;;;11.60;10.23;;;;;;;3.64;63.15;96031.72;6368484;22;20009;-59
2022/04/04 09:34:50;;;;;;;10.35;9.35;;;;;;;3.69;61.68;96025.31;6368123;22;20021;-59
2022/04/04 09:37:16;;;;;;;10.88;9.77;;;;;;;3.68;60.34;96036.69;6368596;22;20012;-60
2022/04/04 09:39:42;;;;;;;10.68;9.77;;;;;;;3.63;63.40;96030.88;6368631;22;19998;-60
2022/04/04 09:42:20;;;;;;;11.40;10.15;;;;;;;3.73;62.54;96026.81;6368585;22;20002;-60
2022/04/04 09:44:57;;;;;;;13.25;11.90;;;;;;;4.00;61.39;96031.28;6368268;22;20465;-60
2022/04/04 09:47:23;;;;;;;12.73;11.43;;;;;;;3.79;63.00;96029.97;6368730;22;20385;-60
2022/04/04 09:49:49;;;;;;;10.07;9.18;;;;;;;4.06;59.63;96029.22;6368276;22;20018;-60
2022/04/04 09:52:14;;;;;;;11.20;10.23;;;;;;;3.99;59.00;96029.63;6368405;22;20090;-59
2022/04/04 09:54:43;;;;;;;17.75;11.20;;;;;;;3.96;61.89;96032.41;6368275;22;20010;-60
2022/04/04 09:57:14;;;;;;;11.52;10.38;;;;;;;4.06;60.72;96031.84;6340742;22;20347;-60
2022/04/04 09:59:41;;;;;;;11.82;10.82;;;;;;;4.09;60.42;96031.66;6368284;22;20334;-60
2022/04/04 10:02:08;;;;;;;10.43;9.52;;;;;;;4.11;59.41;96025.41;6368323;22;20009;-60
2022/04/04 10:04:33;;;;;;;10.52;9.57;;;;;;;4.15;60.57;96026.91;6367999;22;19998;-59
2022/04/04 10:07:06;;;;;;;10.20;9.23;;;;;;;4.19;60.35;96017.13;6368308;22;20453;-60
2022/04/04 10:09:32;;;;;;;10.63;9.63;;;;;;;4.40;60.17;96021.97;6368230;22;20354;-60
2022/04/04 10:11:58;;;;;;;9.75;8.98;;;;;;;4.36;59.75;96017.88;6368202;22;20002;-59
2022/04/04 10:14:24;;;;;;;10.45;9.55;;;;;;;4.41;60.03;96021.84;6368050;22;20033;-60
2022/04/04 10:16:52;;;;;;;11.68;10.57;;;;;;;4.67;57.74;96018.53;6368305;22;20349;-60
2022/04/04 10:19:18;;;;;;;9.98;8.98;;;;;;;4.80;57.66;96006.41;6368645;22;20012;-60
2022/04/04 10:21:44;;;;;;;10.95;10.05;;;;;;;4.53;58.98;96011.59;6368605;22;20401;-60
2022/04/04 10:24:11;;;;;;;11.60;10.48;;;;;;;4.80;57.66;96003.78;6368255;22;20025;-59
2022/04/04 10:26:37;;;;;;;12.15;10.95;;;;;;;4.67;59.06;96010.72;6367884;22;19994;-59
2022/04/04 10:29:17;;;;;;;15.18;12.13;;;;;;;4.85;59.39;96009.53;6368114;22;20453;-60
2022/04/04 10:31:53;;;;;;;12.52;11.43;;;;;;;4.77;57.29;96001.38;6367688;22;20002;-59
2022/04/04 10:34:21;;;;;;;13.18;11.98;;;;;;;4.98;57.47;95999.16;6367836;22;20096;-60
2022/04/04 10:37:14;;;;;;;12.75;11.45;;;;;;;5.25;56.34;95995.66;6367904;22;20426;-60
2022/04/04 10:39:41;;;;;;;13.25;11.77;;;;;;;5.07;55.87;95995.09;6361425;22;20010;-60
2022/04/04 10:42:24;;;;;;;13.52;11.30;;;;;;;5.15;55.92;95994.59;6367919;22;20489;-60
2022/04/04 10:44:56;;;;;;;13.63;12.27;;;;;;;4.87;58.86;95989.41;6367626;22;20372;-60
2022/04/04 10:47:23;;;;;;;11.38;10.38;;;;;;;5.17;55.99;95990.13;6367975;22;20006;-60
2022/04/04 10:49:49;;;;;;;11.93;10.90;;;;;;;5.13;57.21;95999.09;6367612;22;20519;-60
2022/04/04 10:52:19;;;;;;;14.10;12.70;;;;;;;5.12;57.96;96002.63;6367728;22;20011;-60
2022/04/04 10:54:46;;;;;;;12.82;11.52;;;;;;;4.82;57.96;95990.63;6367561;22;20492;-60
2022/04/04 10:57:18;;;;;;;13.30;12.07;;;;;;;5.10;57.06;95994.91;6367850;22;20002;-60
2022/04/04 10:59:48;;;;;;;11.93;10.73;;;;;;;5.35;56.43;95992.44;6367481;22;20393;-59
2022/04/04 11:02:20;;;;;;;12.15;11.13;;;;;;;4.96;57.42;95992.34;6367902;22;20006;-59
2022/04/04 11:07:38;;;;;;;12.32;11.20;;;;;;;5.02;56.68;95991.97;6303400;22;20063;-60
2022/04/04 11:10:09;;;;;;;12.80;11.45;;;;;;;5.20;57.18;95992.53;6367718;22;20007;-60
2022/04/04 11:13:04;;;;;;;12.25;11.05;;;;;;;5.21;55.28;95988.97;6367807;22;20333;-60
2022/04/04 11:15:43;;;;;;;12.68;11.55;;;;;;;4.97;56.92;95987.03;6353246;22;20430;-60
2022/04/04 11:18:13;;;;;;;12.68;11.50;;;;;;;5.04;56.63;95984.00;6367338;22;20056;-59
2022/04/04 11:20:50;;;;;;;13.43;12.13;;;;;;;5.01;56.60;95985.88;6367599;22;20010;-59
2022/04/04 11:23:17;;;;;;;12.27;11.07;;;;;;;5.23;57.03;95981.06;6367611;22;20008;-60
2022/04/04 11:25:52;;;;;;;12.10;11.10;;;;;;;5.16;58.42;95989.25;6367167;22;20003;-60
2022/04/04 11:28:20;;;;;;;12.57;11.32;;;;;;;5.16;58.30;95984.03;6367514;22;20006;-60
2022/04/04 11:30:46;;;;;;;15.35;11.40;;;;;;;5.37;55.15;95986.16;6367377;22;20484;-59